Time;durP1;ratioP1;P1;durP2;ratioP2;P2;SDS_P1;SDS_P2;PMS_P1;PMS_P2;Temp;Humidity;BMP_temperature;BMP_pressure;BME280_temperature;BME280_humidity;BME280_pressure;Samples;Min_cycle;Max_cycle;Signal;HPM_P1;HPM_P2
2023/10/29 00:00:16;;;;;;;;;;;11.70;99.90;;;;;;5119066;27;19999;-82
2023/10/29 00:02:44;;;;;;;;;;;11.70;99.90;;;;;;5122970;27;20005;-83
2023/10/29 00:05:10;;;;;;;;;;;11.70;99.90;;;;;;5127105;27;19982;-84
2023/10/29 00:07:37;;;;;;;;;;;11.60;99.90;;;;;;5121375;27;19990;-83
2023/10/29 00:10:04;;;;;;;;;;;11.70;99.90;;;;;;5125550;27;20448;-82
2023/10/29 00:12:35;;;;;;;;;;;11.70;99.90;;;;;;5121825;28;19990;-82
2023/10/29 00:15:02;;;;;;;;;;;11.70;99.90;;;;;;5124628;27;19979;-82
2023/10/29 00:17:28;;;;;;;;;;;11.70;99.90;;;;;;5130124;27;20727;-83
2023/10/29 00:19:55;;;;;;;;;;;11.60;99.90;;;;;;5128873;27;19997;-83
2023/10/29 00:22:21;;;;;;;;;;;11.60;99.90;;;;;;5130197;27;20006;-82
2023/10/29 00:24:48;;;;;;;;;;;11.60;99.90;;;;;;5132833;27;20022;-82
2023/10/29 00:27:14;;;;;;;;;;;11.60;99.90;;;;;;5130667;27;20013;-82
2023/10/29 00:29:45;;;;;;;;;;;11.60;99.90;;;;;;5128921;27;19981;-83
2023/10/29 00:32:12;;;;;;;;;;;11.60;99.90;;;;;;5117596;27;19998;-82
2023/10/29 00:34:39;;;;;;;;;;;11.60;99.90;;;;;;5125518;27;19986;-82
2023/10/29 00:37:05;;;;;;;;;;;11.60;99.90;;;;;;5127407;27;19979;-82
2023/10/29 00:39:32;;;;;;;;;;;11.60;99.90;;;;;;5122042;27;19995;-82
2023/10/29 00:41:59;;;;;;;;;;;11.60;99.90;;;;;;5124514;27;20018;-82
2023/10/29 00:44:26;;;;;;;;;;;11.60;99.90;;;;;;5120733;27;19985;-82
2023/10/29 00:46:54;;;;;;;;;;;11.60;99.90;;;;;;5119970;27;19995;-82
2023/10/29 00:49:21;;;;;;;;;;;11.60;99.90;;;;;;5120372;27;20040;-82
2023/10/29 00:51:47;;;;;;;;;;;11.60;99.90;;;;;;5118469;27;20396;-83
2023/10/29 00:54:14;;;;;;;;;;;11.50;99.90;;;;;;5125702;27;20060;-81
2023/10/29 00:56:40;;;;;;;;;;;11.60;99.90;;;;;;5122290;27;19970;-82
2023/10/29 00:59:07;;;;;;;;;;;11.60;99.90;;;;;;5128167;27;20020;-82
2023/10/29 01:01:34;;;;;;;;;;;11.50;99.90;;;;;;5122121;27;20041;-82
2023/10/29 01:04:04;;;;;;;;;;;11.50;99.90;;;;;;5123975;27;19979;-82
2023/10/29 01:06:31;;;;;;;;;;;11.50;99.90;;;;;;5128396;27;20397;-83
2023/10/29 01:08:58;;;;;;;;;;;11.50;99.90;;;;;;5124064;27;20004;-83
2023/10/29 01:11:25;;;;;;;;;;;11.50;99.90;;;;;;5119631;27;20103;-83
2023/10/29 01:13:51;;;;;;;;;;;11.50;99.90;;;;;;5118994;27;20030;-83
2023/10/29 01:16:18;;;;;;;;;;;11.50;99.90;;;;;;5125837;27;19998;-83
2023/10/29 01:18:45;;;;;;;;;;;11.50;99.90;;;;;;5122294;27;20017;-82
2023/10/29 01:21:13;;;;;;;;;;;11.50;99.90;;;;;;5128403;27;19990;-82
2023/10/29 01:23:39;;;;;;;;;;;11.50;99.90;;;;;;5122043;27;20026;-82
2023/10/29 01:26:06;;;;;;;;;;;11.50;99.90;;;;;;5124095;27;20010;-83
2023/10/29 01:28:32;;;;;;;;;;;11.50;99.90;;;;;;5125219;27;19978;-84
2023/10/29 01:31:00;;;;;;;;;;;11.50;99.90;;;;;;5120827;27;20002;-83
2023/10/29 01:33:27;;;;;;;;;;;11.50;99.90;;;;;;5120841;27;19990;-83
2023/10/29 01:35:53;;;;;;;;;;;11.50;99.90;;;;;;5120668;27;19982;-83
2023/10/29 01:38:23;;;;;;;;;;;11.50;99.90;;;;;;5125506;27;19978;-83
2023/10/29 01:40:49;;;;;;;;;;;11.50;99.90;;;;;;5127505;27;19994;-83
2023/10/29 01:43:16;;;;;;;;;;;11.50;99.90;;;;;;5124858;27;20045;-83
2023/10/29 01:45:42;;;;;;;;;;;11.40;99.90;;;;;;5120630;27;20436;-82
2023/10/29 01:48:09;;;;;;;;;;;11.40;99.90;;;;;;5120933;27;20013;-82
2023/10/29 01:50:36;;;;;;;;;;;11.50;99.90;;;;;;5129302;27;20063;-82
2023/10/29 01:53:03;;;;;;;;;;;11.50;99.90;;;;;;5122569;27;20005;-82
2023/10/29 01:55:31;;;;;;;;;;;11.40;99.90;;;;;;5122391;27;20556;-82
2023/10/29 01:57:57;;;;;;;;;;;11.50;99.90;;;;;;5122866;27;19991;-83
2023/10/29 02:00:24;;;;;;;;;;;11.50;99.90;;;;;;5119288;27;19998;-82
2023/10/29 02:02:51;;;;;;;;;;;11.40;99.90;;;;;;5125863;27;20445;-83
2023/10/29 02:05:18;;;;;;;;;;;11.40;99.90;;;;;;5122098;27;19997;-82
2023/10/29 02:07:45;;;;;;;;;;;11.40;99.90;;;;;;5113810;27;20022;-83
2023/10/29 02:10:12;;;;;;;;;;;11.40;99.90;;;;;;5122008;27;20461;-82
2023/10/29 02:12:40;;;;;;;;;;;11.40;99.90;;;;;;5127962;27;20080;-82
2023/10/29 02:15:07;;;;;;;;;;;11.40;99.90;;;;;;5120759;27;20003;-82
2023/10/29 02:17:34;;;;;;;;;;;11.40;99.90;;;;;;5123891;27;19974;-83
2023/10/29 02:20:00;;;;;;;;;;;11.40;99.90;;;;;;5121062;27;19991;-82
2023/10/29 02:22:29;;;;;;;;;;;11.40;99.90;;;;;;5122314;27;20542;-82
2023/10/29 02:24:55;;;;;;;;;;;11.40;99.90;;;;;;5117762;27;19984;-83
2023/10/29 02:27:22;;;;;;;;;;;11.40;99.90;;;;;;5125191;27;20068;-81
2023/10/29 02:29:48;;;;;;;;;;;11.40;99.90;;;;;;5119678;27;19985;-82
2023/10/29 02:32:15;;;;;;;;;;;11.40;99.90;;;;;;5118916;27;19995;-82
2023/10/29 02:34:42;;;;;;;;;;;11.40;99.90;;;;;;5122155;27;21147;-82
2023/10/29 02:37:09;;;;;;;;;;;11.30;99.90;;;;;;5114004;27;20658;-81
2023/10/29 02:39:37;;;;;;;;;;;11.40;99.90;;;;;;5123639;27;20001;-81
2023/10/29 02:42:03;;;;;;;;;;;11.40;99.90;;;;;;5118183;27;20082;-81
2023/10/29 02:44:32;;;;;;;;;;;11.30;99.90;;;;;;5124142;27;20030;-82
2023/10/29 02:46:59;;;;;;;;;;;11.30;99.90;;;;;;5111131;27;20506;-82
2023/10/29 02:49:25;;;;;;;;;;;11.30;99.90;;;;;;5110580;27;19986;-83
2023/10/29 02:51:52;;;;;;;;;;;11.30;99.90;;;;;;5108118;27;20024;-83
2023/10/29 02:54:19;;;;;;;;;;;11.30;99.90;;;;;;5109703;28;19979;-82
2023/10/29 02:56:47;;;;;;;;;;;11.40;99.90;;;;;;5106709;27;20453;-83
2023/10/29 02:59:13;;;;;;;;;;;11.30;99.90;;;;;;5101938;27;20069;-82
2023/10/29 03:01:40;;;;;;;;;;;11.30;99.90;;;;;;5100684;27;20060;-82
2023/10/29 03:04:07;;;;;;;;;;;11.30;99.90;;;;;;5098980;28;19990;-82
2023/10/29 03:06:35;;;;;;;;;;;11.30;99.90;;;;;;5107882;27;20609;-82
2023/10/29 03:09:02;;;;;;;;;;;11.30;99.90;;;;;;5104733;28;19983;-82
2023/10/29 03:11:29;;;;;;;;;;;11.30;99.90;;;;;;5107099;28;20632;-83
2023/10/29 03:13:59;;;;;;;;;;;11.30;99.90;;;;;;5108585;27;20522;-82
2023/10/29 03:16:25;;;;;;;;;;;11.30;99.90;;;;;;5109173;27;19997;-83
2023/10/29 03:18:52;;;;;;;;;;;11.30;99.90;;;;;;5106781;27;19989;-83
2023/10/29 03:21:19;;;;;;;;;;;11.30;99.90;;;;;;5108640;28;20085;-83
2023/10/29 03:23:45;;;;;;;;;;;11.30;99.90;;;;;;5103662;28;20006;-82
2023/10/29 03:26:12;;;;;;;;;;;11.30;99.90;;;;;;5102847;28;19983;-83
2023/10/29 03:28:39;;;;;;;;;;;11.30;99.90;;;;;;5106304;28;19979;-82
2023/10/29 03:31:15;;;;;;;;;;;11.30;99.90;;;;;;5104335;27;20059;-82
2023/10/29 03:33:42;;;;;;;;;;;11.30;99.90;;;;;;5105286;28;19990;-82
2023/10/29 03:36:09;;;;;;;;;;;11.20;99.90;;;;;;5105006;27;20021;-81
2023/10/29 03:38:35;;;;;;;;;;;11.20;99.90;;;;;;5108818;28;19983;-81
2023/10/29 03:41:02;;;;;;;;;;;11.30;99.90;;;;;;5102495;27;20486;-81
2023/10/29 03:43:29;;;;;;;;;;;11.20;99.90;;;;;;5103202;27;20266;-82
2023/10/29 03:45:55;;;;;;;;;;;11.20;99.90;;;;;;5105054;27;20005;-82
2023/10/29 03:48:24;;;;;;;;;;;11.20;99.90;;;;;;5102283;27;20032;-81
2023/10/29 03:50:50;;;;;;;;;;;11.20;99.90;;;;;;5103520;27;20031;-81
2023/10/29 03:53:17;;;;;;;;;;;11.20;99.90;;;;;;5090070;28;19991;-81
2023/10/29 03:55:43;;;;;;;;;;;11.20;99.90;;;;;;5108211;28;20491;-81
2023/10/29 03:58:10;;;;;;;;;;;11.20;99.90;;;;;;5105072;28;19986;-81
2023/10/29 04:00:37;;;;;;;;;;;11.20;99.90;;;;;;5104775;28;20352;-82
2023/10/29 04:03:03;;;;;;;;;;;11.20;99.90;;;;;;5103532;28;20003;-81
2023/10/29 04:05:34;;;;;;;;;;;11.20;99.90;;;;;;5105877;28;20650;-79
2023/10/29 04:08:00;;;;;;;;;;;11.20;99.90;;;;;;5102862;28;20363;-81
2023/10/29 04:10:27;;;;;;;;;;;11.20;99.90;;;;;;5104597;27;19997;-81
2023/10/29 04:12:53;;;;;;;;;;;11.20;99.90;;;;;;5106826;28;19997;-81
2023/10/29 04:15:20;;;;;;;;;;;11.10;99.90;;;;;;5107148;27;19975;-82
2023/10/29 04:17:48;;;;;;;;;;;11.20;99.90;;;;;;5107157;28;19979;-82
2023/10/29 04:20:14;;;;;;;;;;;11.20;99.90;;;;;;5101508;28;20003;-82
2023/10/29 04:22:43;;;;;;;;;;;11.20;99.90;;;;;;5101616;28;20034;-82
2023/10/29 04:25:10;;;;;;;;;;;11.20;99.90;;;;;;5104147;27;20097;-81
2023/10/29 04:27:37;;;;;;;;;;;11.20;99.90;;;;;;5105632;28;20371;-82
2023/10/29 04:30:04;;;;;;;;;;;11.20;99.90;;;;;;5105624;28;19983;-82
2023/10/29 04:32:30;;;;;;;;;;;11.20;99.90;;;;;;5121374;27;20062;-81
2023/10/29 04:34:57;;;;;;;;;;;11.20;99.90;;;;;;5122809;27;19979;-81
2023/10/29 04:37:23;;;;;;;;;;;11.20;99.90;;;;;;5118128;27;19987;-81
2023/10/29 04:39:51;;;;;;;;;;;11.10;99.90;;;;;;5119760;27;19996;-81
2023/10/29 04:42:18;;;;;;;;;;;11.20;99.90;;;;;;5122534;27;19998;-81
2023/10/29 04:44:44;;;;;;;;;;;11.20;99.90;;;;;;5120187;27;19982;-81
2023/10/29 04:47:11;;;;;;;;;;;11.20;99.90;;;;;;5102089;27;20323;-81
2023/10/29 04:49:38;;;;;;;;;;;11.20;99.90;;;;;;5107008;28;19990;-82
2023/10/29 04:52:05;;;;;;;;;;;11.10;99.90;;;;;;5103913;28;20401;-82
2023/10/29 04:54:31;;;;;;;;;;;11.20;99.90;;;;;;5100607;28;20024;-82
2023/10/29 04:56:59;;;;;;;;;;;11.20;99.90;;;;;;5104786;28;19979;-81
2023/10/29 04:59:26;;;;;;;;;;;11.10;99.90;;;;;;5100880;28;19982;-81
2023/10/29 05:01:54;;;;;;;;;;;11.10;99.90;;;;;;5110056;27;19999;-82
2023/10/29 05:04:21;;;;;;;;;;;11.20;99.90;;;;;;5110020;27;19989;-82
2023/10/29 05:06:47;;;;;;;;;;;11.10;99.90;;;;;;5105984;27;20031;-82
2023/10/29 05:09:14;;;;;;;;;;;11.10;99.90;;;;;;5110496;27;19978;-82
2023/10/29 05:11:40;;;;;;;;;;;11.10;99.90;;;;;;5108355;27;20462;-82
2023/10/29 05:14:09;;;;;;;;;;;11.10;99.90;;;;;;5102479;28;20009;-82
2023/10/29 05:16:35;;;;;;;;;;;11.10;99.90;;;;;;5093745;28;20002;-82
2023/10/29 05:19:03;;;;;;;;;;;11.10;99.90;;;;;;5095033;28;19979;-82
2023/10/29 05:21:29;;;;;;;;;;;11.20;99.90;;;;;;5093859;27;20451;-82
2023/10/29 05:23:56;;;;;;;;;;;11.10;99.90;;;;;;5096398;28;19986;-82
2023/10/29 05:26:23;;;;;;;;;;;11.20;99.90;;;;;;5094073;28;19975;-82
2023/10/29 05:28:49;;;;;;;;;;;11.10;99.90;;;;;;5093910;28;19979;-82
2023/10/29 05:31:17;;;;;;;;;;;11.10;99.90;;;;;;5097438;27;19990;-82
2023/10/29 05:33:44;;;;;;;;;;;11.10;99.90;;;;;;5097818;27;20555;-82
2023/10/29 05:36:11;;;;;;;;;;;11.10;99.90;;;;;;5095350;28;20061;-82
2023/10/29 05:38:37;;;;;;;;;;;11.10;99.90;;;;;;5098369;28;19997;-82
2023/10/29 05:41:04;;;;;;;;;;;11.10;99.90;;;;;;5096682;28;20329;-83
2023/10/29 05:43:33;;;;;;;;;;;11.10;99.90;;;;;;5095026;27;20002;-83
2023/10/29 05:46:00;;;;;;;;;;;11.20;99.90;;;;;;5095278;28;20089;-82
2023/10/29 05:48:28;;;;;;;;;;;11.10;99.90;;;;;;5095989;28;20018;-83
2023/10/29 05:50:55;;;;;;;;;;;11.20;99.90;;;;;;5093841;27;19985;-82
2023/10/29 05:53:21;;;;;;;;;;;11.20;99.90;;;;;;5100765;27;20037;-82
2023/10/29 05:55:48;;;;;;;;;;;11.10;99.90;;;;;;5101841;27;20127;-82
2023/10/29 05:58:14;;;;;;;;;;;11.10;99.90;;;;;;5098715;27;19979;-81
2023/10/29 06:00:41;;;;;;;;;;;11.10;99.90;;;;;;5092308;28;20034;-82
2023/10/29 06:03:08;;;;;;;;;;;11.10;99.90;;;;;;5095005;28;20474;-84
2023/10/29 06:05:36;;;;;;;;;;;11.10;99.90;;;;;;5089939;28;19975;-83
2023/10/29 06:08:04;;;;;;;;;;;11.20;99.90;;;;;;5094933;28;19983;-83
2023/10/29 06:10:31;;;;;;;;;;;11.10;99.90;;;;;;5093938;28;20436;-82
2023/10/29 06:12:59;;;;;;;;;;;11.20;99.90;;;;;;5095408;28;20006;-82
2023/10/29 06:15:26;;;;;;;;;;;11.20;99.90;;;;;;5087293;27;20312;-82
2023/10/29 06:17:54;;;;;;;;;;;11.20;99.90;;;;;;5092999;28;20004;-82
2023/10/29 06:20:22;;;;;;;;;;;11.20;99.90;;;;;;5088945;28;20427;-82
2023/10/29 06:22:50;;;;;;;;;;;11.20;99.90;;;;;;5095048;27;20002;-84
2023/10/29 06:25:17;;;;;;;;;;;11.20;99.90;;;;;;5092217;28;20428;-83
2023/10/29 06:27:43;;;;;;;;;;;11.20;99.90;;;;;;5093913;28;19979;-84
2023/10/29 06:30:12;;;;;;;;;;;11.20;99.90;;;;;;5094376;28;19983;-81
2023/10/29 06:32:38;;;;;;;;;;;11.20;99.90;;;;;;5089711;28;19998;-82
2023/10/29 06:35:05;;;;;;;;;;;11.20;99.90;;;;;;5094093;28;19982;-83
2023/10/29 06:37:32;;;;;;;;;;;11.20;99.90;;;;;;5097419;28;19975;-83
2023/10/29 06:40:00;;;;;;;;;;;11.20;99.90;;;;;;5089745;28;19979;-82
2023/10/29 06:42:26;;;;;;;;;;;11.20;99.90;;;;;;5091882;28;20218;-83
2023/10/29 06:44:53;;;;;;;;;;;11.20;99.90;;;;;;5093895;28;20220;-84
2023/10/29 06:47:20;;;;;;;;;;;11.20;99.90;;;;;;5092669;28;20002;-83
2023/10/29 06:49:46;;;;;;;;;;;11.20;99.90;;;;;;5094903;28;20442;-85
2023/10/29 06:52:13;;;;;;;;;;;11.20;99.90;;;;;;5093765;28;19995;-83
2023/10/29 06:54:40;;;;;;;;;;;11.20;99.90;;;;;;5091777;28;20070;-82
2023/10/29 06:57:08;;;;;;;;;;;11.20;99.90;;;;;;5094655;28;19984;-82
2023/10/29 06:59:35;;;;;;;;;;;11.20;99.90;;;;;;5097261;28;19979;-82
2023/10/29 07:02:02;;;;;;;;;;;11.20;99.90;;;;;;5096570;28;20013;-82
2023/10/29 07:04:28;;;;;;;;;;;11.20;99.90;;;;;;5098984;28;19987;-82
2023/10/29 07:06:55;;;;;;;;;;;11.20;99.90;;;;;;5097591;28;20001;-82
2023/10/29 07:09:21;;;;;;;;;;;11.20;99.90;;;;;;5094670;28;19978;-82
2023/10/29 07:11:48;;;;;;;;;;;11.20;99.90;;;;;;5097932;28;20024;-83
2023/10/29 07:14:17;;;;;;;;;;;11.20;99.90;;;;;;5093024;28;19985;-82
2023/10/29 07:16:44;;;;;;;;;;;11.20;99.90;;;;;;5095095;28;19990;-82
2023/10/29 07:19:11;;;;;;;;;;;11.20;99.90;;;;;;5091744;28;20083;-82
2023/10/29 07:21:38;;;;;;;;;;;11.20;99.90;;;;;;5095112;28;20074;-83
2023/10/29 07:24:05;;;;;;;;;;;11.20;99.90;;;;;;5098909;28;20005;-82
2023/10/29 07:26:31;;;;;;;;;;;11.30;99.90;;;;;;5092277;28;20077;-84
2023/10/29 07:28:58;;;;;;;;;;;11.20;99.90;;;;;;5095151;28;20383;-83
2023/10/29 07:31:26;;;;;;;;;;;11.20;99.90;;;;;;5093869;27;20021;-83
2023/10/29 07:33:53;;;;;;;;;;;11.20;99.90;;;;;;5091980;28;20022;-82
2023/10/29 07:36:20;;;;;;;;;;;11.20;99.90;;;;;;5089847;28;19978;-82
2023/10/29 07:38:47;;;;;;;;;;;11.20;99.90;;;;;;5091458;28;20434;-83
2023/10/29 07:41:18;;;;;;;;;;;11.20;99.90;;;;;;5087442;28;19994;-84
2023/10/29 07:43:44;;;;;;;;;;;11.20;99.90;;;;;;5094308;28;19991;-83
2023/10/29 07:46:11;;;;;;;;;;;11.20;99.90;;;;;;5090089;28;19994;-82
2023/10/29 07:48:39;;;;;;;;;;;11.30;99.90;;;;;;5088650;28;19985;-83
2023/10/29 07:51:05;;;;;;;;;;;11.10;99.90;;;;;;5094277;28;19986;-83
2023/10/29 07:53:32;;;;;;;;;;;11.20;99.90;;;;;;5095979;28;20005;-83
2023/10/29 07:56:06;;;;;;;;;;;11.20;99.90;;;;;;5090579;28;19982;-83
2023/10/29 07:58:33;;;;;;;;;;;11.20;99.90;;;;;;5095403;28;19984;-83
2023/10/29 08:01:00;;;;;;;;;;;11.20;99.90;;;;;;5093183;28;20468;-84
2023/10/29 08:03:27;;;;;;;;;;;11.30;99.90;;;;;;5096438;28;20005;-84
2023/10/29 08:05:55;;;;;;;;;;;11.30;99.90;;;;;;5095318;28;20082;-83
2023/10/29 08:08:21;;;;;;;;;;;11.30;99.90;;;;;;5094330;28;20482;-82
2023/10/29 08:10:48;;;;;;;;;;;11.20;99.90;;;;;;5096837;28;19975;-83
2023/10/29 08:13:14;;;;;;;;;;;11.30;99.90;;;;;;5099484;28;20502;-82
2023/10/29 08:15:41;;;;;;;;;;;11.30;99.90;;;;;;5089742;28;20281;-83
2023/10/29 08:18:07;;;;;;;;;;;11.20;99.90;;;;;;5090318;28;20345;-82
2023/10/29 08:20:34;;;;;;;;;;;11.30;99.90;;;;;;5090545;28;19979;-84
2023/10/29 08:23:02;;;;;;;;;;;11.30;99.90;;;;;;5091407;28;20002;-82
2023/10/29 08:25:29;;;;;;;;;;;11.30;99.90;;;;;;5096096;28;20312;-83
2023/10/29 08:27:55;;;;;;;;;;;11.30;99.90;;;;;;5089508;28;19979;-83
2023/10/29 08:30:22;;;;;;;;;;;11.30;99.90;;;;;;5093255;28;20885;-84
2023/10/29 08:32:49;;;;;;;;;;;11.30;99.90;;;;;;5093516;28;19991;-83
2023/10/29 08:35:15;;;;;;;;;;;11.30;99.90;;;;;;5097353;28;20230;-82
2023/10/29 08:37:42;;;;;;;;;;;11.30;99.90;;;;;;5094076;28;19978;-83
2023/10/29 08:40:11;;;;;;;;;;;11.30;99.90;;;;;;5097648;28;19979;-82
2023/10/29 08:42:38;;;;;;;;;;;11.30;99.90;;;;;;5093400;27;20038;-82
2023/10/29 08:45:05;;;;;;;;;;;11.30;99.90;;;;;;5095386;28;19979;-82
2023/10/29 08:47:32;;;;;;;;;;;11.30;99.90;;;;;;5098934;28;20002;-82
2023/10/29 08:49:59;;;;;;;;;;;11.30;99.90;;;;;;5089360;28;19979;-82
2023/10/29 08:52:25;;;;;;;;;;;11.30;99.90;;;;;;5094330;27;19995;-82
2023/10/29 08:54:52;;;;;;;;;;;11.40;99.90;;;;;;5094731;27;20093;-82
2023/10/29 08:57:21;;;;;;;;;;;11.40;99.90;;;;;;5090665;27;20225;-82
2023/10/29 08:59:48;;;;;;;;;;;11.40;99.90;;;;;;5093354;28;20010;-82
2023/10/29 09:02:15;;;;;;;;;;;11.40;99.90;;;;;;5094559;28;20536;-82
2023/10/29 09:04:41;;;;;;;;;;;11.40;99.90;;;;;;5091859;27;19983;-82
2023/10/29 09:07:08;;;;;;;;;;;11.40;99.90;;;;;;5090947;28;19979;-81
2023/10/29 09:09:36;;;;;;;;;;;11.40;99.90;;;;;;5096008;27;19990;-82
2023/10/29 09:12:02;;;;;;;;;;;11.40;99.90;;;;;;5093505;27;19999;-83
2023/10/29 09:14:31;;;;;;;;;;;11.40;99.90;;;;;;5092325;28;19979;-82
2023/10/29 09:16:57;;;;;;;;;;;11.50;99.90;;;;;;5089961;27;20089;-82
2023/10/29 09:19:25;;;;;;;;;;;11.50;99.90;;;;;;5093936;28;20019;-82
2023/10/29 09:21:52;;;;;;;;;;;11.50;99.90;;;;;;5091736;28;20003;-82
2023/10/29 09:24:18;;;;;;;;;;;11.50;99.90;;;;;;5097994;28;19979;-82
2023/10/29 09:26:45;;;;;;;;;;;11.50;99.90;;;;;;5093013;28;20012;-82
2023/10/29 09:29:11;;;;;;;;;;;11.50;99.90;;;;;;5099675;28;20312;-81
2023/10/29 09:31:39;;;;;;;;;;;11.50;99.90;;;;;;5092034;27;20431;-81
2023/10/29 09:34:06;;;;;;;;;;;11.50;99.90;;;;;;5094588;28;19983;-82
2023/10/29 09:36:33;;;;;;;;;;;11.60;99.90;;;;;;5096214;28;19979;-81
2023/10/29 09:39:00;;;;;;;;;;;11.60;99.90;;;;;;5094656;28;20032;-81
2023/10/29 09:41:26;;;;;;;;;;;11.60;99.90;;;;;;5094613;27;19974;-81
2023/10/29 09:43:53;;;;;;;;;;;11.60;99.90;;;;;;5092352;28;20511;-81
2023/10/29 09:46:21;;;;;;;;;;;11.60;99.90;;;;;;5094754;28;20002;-81
2023/10/29 09:48:49;;;;;;;;;;;11.60;99.90;;;;;;5095780;28;20028;-82
2023/10/29 09:51:16;;;;;;;;;;;11.60;99.90;;;;;;5093510;28;19979;-83
2023/10/29 09:53:42;;;;;;;;;;;11.60;99.90;;;;;;5095744;28;20105;-82
2023/10/29 09:56:09;;;;;;;;;;;11.60;99.90;;;;;;5092802;27;19982;-82
2023/10/29 09:58:36;;;;;;;;;;;11.60;99.90;;;;;;5099619;28;20496;-82
2023/10/29 10:01:04;;;;;;;;;;;11.70;99.90;;;;;;5088457;28;20191;-83
2023/10/29 10:03:31;;;;;;;;;;;11.60;99.90;;;;;;5102334;28;20383;-82
2023/10/29 10:05:59;;;;;;;;;;;11.60;99.90;;;;;;5097874;28;19979;-81
2023/10/29 10:08:26;;;;;;;;;;;11.70;99.90;;;;;;5095902;28;19975;-82
2023/10/29 10:10:53;;;;;;;;;;;11.70;99.90;;;;;;5091956;28;20001;-82
2023/10/29 10:13:35;;;;;;;;;;;11.70;99.90;;;;;;5092957;28;20540;-81
2023/10/29 10:16:05;;;;;;;;;;;11.70;99.90;;;;;;5095855;27;19998;-82
2023/10/29 10:18:47;;;;;;;;;;;11.70;99.90;;;;;;5096217;28;19996;-82
2023/10/29 10:21:15;;;;;;;;;;;11.80;99.90;;;;;;5091445;28;20056;-82
2023/10/29 10:23:46;;;;;;;;;;;11.70;99.90;;;;;;5095105;27;19994;-82
2023/10/29 10:26:13;;;;;;;;;;;11.80;99.90;;;;;;5095011;28;20069;-82
2023/10/29 10:28:51;;;;;;;;;;;11.70;99.90;;;;;;5096304;28;19970;-81
2023/10/29 10:31:17;;;;;;;;;;;11.80;99.90;;;;;;5092622;27;19990;-82
2023/10/29 10:33:44;;;;;;;;;;;11.80;99.90;;;;;;5086139;27;19998;-82
2023/10/29 10:36:11;;;;;;;;;;;11.80;99.90;;;;;;5086760;28;20014;-82
2023/10/29 10:38:51;;;;;;;;;;;11.80;99.90;;;;;;5096551;28;20035;-81
2023/10/29 10:41:17;;;;;;;;;;;11.70;99.90;;;;;;5093168;28;20025;-81
2023/10/29 10:43:44;;;;;;;;;;;11.80;99.90;;;;;;5096537;28;19998;-81
2023/10/29 10:46:12;;;;;;;;;;;11.80;99.90;;;;;;5094459;28;19990;-81
2023/10/29 10:48:41;;;;;;;;;;;11.90;99.90;;;;;;5089969;28;19975;-81
2023/10/29 10:51:10;;;;;;;;;;;11.90;99.90;;;;;;5101053;27;20452;-80
2023/10/29 10:53:38;;;;;;;;;;;11.90;99.90;;;;;;5098145;28;19991;-81
2023/10/29 10:56:08;;;;;;;;;;;11.90;99.90;;;;;;5089376;28;19976;-81
2023/10/29 10:58:35;;;;;;;;;;;11.90;99.90;;;;;;5099282;28;20681;-80
2023/10/29 11:01:03;;;;;;;;;;;12.00;99.90;;;;;;5087682;28;20034;-81
2023/10/29 11:03:30;;;;;;;;;;;12.00;99.90;;;;;;5090791;28;20556;-80
2023/10/29 11:05:57;;;;;;;;;;;12.00;99.90;;;;;;5090530;28;20491;-81
2023/10/29 11:08:24;;;;;;;;;;;12.00;99.90;;;;;;5097300;28;20043;-83
2023/10/29 11:10:53;;;;;;;;;;;12.10;99.90;;;;;;5092475;28;20422;-82
2023/10/29 11:13:21;;;;;;;;;;;12.10;99.90;;;;;;5092439;28;20487;-82
2023/10/29 11:15:48;;;;;;;;;;;12.20;99.90;;;;;;5090541;28;20864;-82
2023/10/29 11:18:15;;;;;;;;;;;12.20;99.90;;;;;;5094486;28;20052;-82
2023/10/29 11:20:53;;;;;;;;;;;12.30;99.90;;;;;;5092294;28;20400;-82
2023/10/29 11:23:24;;;;;;;;;;;12.30;99.90;;;;;;5099836;28;20415;-84
2023/10/29 11:25:50;;;;;;;;;;;12.40;99.90;;;;;;5096325;28;19982;-83
2023/10/29 11:28:35;;;;;;;;;;;12.40;99.90;;;;;;5096883;28;19975;-82
2023/10/29 11:31:13;;;;;;;;;;;12.40;99.90;;;;;;5093571;27;19990;-83
2023/10/29 11:33:40;;;;;;;;;;;12.50;99.90;;;;;;5094144;28;20059;-84
2023/10/29 11:36:26;;;;;;;;;;;12.50;99.90;;;;;;5093631;28;19975;-85
2023/10/29 11:38:52;;;;;;;;;;;12.50;99.90;;;;;;5092823;28;19986;-84
2023/10/29 11:41:32;;;;;;;;;;;12.60;99.90;;;;;;5089727;27;19982;-85
2023/10/29 11:44:29;;;;;;;;;;;12.60;99.90;;;;;;5096112;28;19998;-86
2023/10/29 11:47:13;;;;;;;;;;;12.60;99.90;;;;;;5053463;28;20003;-87
2023/10/29 11:49:58;;;;;;;;;;;12.70;99.90;;;;;;5089278;28;19982;-85
2023/10/29 11:52:40;;;;;;;;;;;12.70;99.90;;;;;;5093580;28;19998;-85
2023/10/29 11:55:09;;;;;;;;;;;12.70;99.90;;;;;;5091736;28;19979;-85
2023/10/29 11:57:36;;;;;;;;;;;12.80;99.90;;;;;;5090808;28;20579;-85
2023/10/29 12:00:03;;;;;;;;;;;12.80;99.90;;;;;;5093574;28;19983;-86
2023/10/29 12:02:31;;;;;;;;;;;12.80;99.90;;;;;;5090766;28;20047;-84
2023/10/29 12:04:58;;;;;;;;;;;12.90;99.90;;;;;;5095857;28;20510;-85
2023/10/29 12:07:25;;;;;;;;;;;12.90;99.90;;;;;;5093565;28;19979;-87
2023/10/29 12:09:59;;;;;;;;;;;12.90;99.90;;;;;;5093990;28;20441;-87
2023/10/29 12:12:26;;;;;;;;;;;13.00;99.90;;;;;;5105903;28;19990;-88
2023/10/29 12:14:53;;;;;;;;;;;13.00;99.90;;;;;;5093576;27;19985;-87
2023/10/29 12:17:19;;;;;;;;;;;13.00;99.90;;;;;;5094200;27;19999;-87
2023/10/29 12:19:48;;;;;;;;;;;13.10;99.90;;;;;;5103705;27;20048;-87
2023/10/29 12:22:16;;;;;;;;;;;13.00;99.90;;;;;;5098144;28;19991;-86
2023/10/29 12:24:43;;;;;;;;;;;13.00;99.90;;;;;;5098577;27;19995;-84
2023/10/29 12:27:09;;;;;;;;;;;13.00;99.90;;;;;;5095861;28;19975;-84
2023/10/29 12:29:36;;;;;;;;;;;13.00;99.90;;;;;;5088317;28;20009;-84
2023/10/29 12:32:02;;;;;;;;;;;13.00;99.90;;;;;;5095562;28;20374;-83
2023/10/29 12:34:44;;;;;;;;;;;13.00;99.90;;;;;;5097771;28;20457;-83
2023/10/29 12:37:19;;;;;;;;;;;13.10;99.90;;;;;;5093880;28;19982;-84
2023/10/29 12:39:46;;;;;;;;;;;13.00;99.90;;;;;;5093183;27;19979;-84
2023/10/29 12:42:13;;;;;;;;;;;13.00;99.90;;;;;;5090346;27;20341;-84
2023/10/29 12:44:50;;;;;;;;;;;13.00;99.90;;;;;;5095250;28;20596;-84
2023/10/29 12:47:17;;;;;;;;;;;13.10;99.90;;;;;;5096246;27;19994;-84
2023/10/29 12:49:44;;;;;;;;;;;13.10;99.90;;;;;;5094247;28;20066;-85
2023/10/29 12:52:12;;;;;;;;;;;13.10;99.90;;;;;;5095838;28;19991;-84
2023/10/29 12:54:43;;;;;;;;;;;13.10;99.90;;;;;;5098281;28;20467;-87
2023/10/29 12:57:16;;;;;;;;;;;13.20;99.90;;;;;;5094046;28;20232;-86
2023/10/29 12:59:43;;;;;;;;;;;13.20;99.90;;;;;;5101470;28;19981;-85
2023/10/29 13:02:20;;;;;;;;;;;13.20;99.90;;;;;;5094282;28;20094;-87
2023/10/29 13:04:47;;;;;;;;;;;13.20;99.90;;;;;;5094380;28;20368;-85
2023/10/29 13:07:14;;;;;;;;;;;13.30;99.90;;;;;;5096804;28;20001;-86
2023/10/29 13:09:41;;;;;;;;;;;13.30;99.90;;;;;;5102513;28;20010;-85
2023/10/29 13:12:11;;;;;;;;;;;13.30;99.90;;;;;;5095664;28;20828;-84
2023/10/29 13:14:38;;;;;;;;;;;13.30;99.90;;;;;;5099995;28;20010;-86
2023/10/29 13:17:05;;;;;;;;;;;13.30;99.90;;;;;;5084574;28;19995;-86
2023/10/29 13:19:31;;;;;;;;;;;13.30;99.90;;;;;;5100803;28;20478;-86
2023/10/29 13:21:58;;;;;;;;;;;13.40;99.90;;;;;;5097990;28;19999;-85
2023/10/29 13:24:24;;;;;;;;;;;13.40;99.90;;;;;;5099158;28;20006;-85
2023/10/29 13:26:52;;;;;;;;;;;13.40;99.90;;;;;;5096757;28;19978;-85
2023/10/29 13:29:20;;;;;;;;;;;13.40;99.90;;;;;;5100971;28;19982;-83
2023/10/29 13:31:47;;;;;;;;;;;13.40;99.90;;;;;;5095755;28;20640;-84
2023/10/29 13:34:13;;;;;;;;;;;13.40;99.90;;;;;;5102499;28;19985;-83
2023/10/29 13:36:40;;;;;;;;;;;13.40;99.90;;;;;;5102241;28;19978;-84
2023/10/29 13:39:07;;;;;;;;;;;13.40;99.90;;;;;;5099876;28;19979;-84
2023/10/29 13:41:34;;;;;;;;;;;13.50;99.90;;;;;;5100873;28;20022;-84
2023/10/29 13:44:00;;;;;;;;;;;13.40;99.90;;;;;;5097739;28;19995;-84
2023/10/29 13:46:28;;;;;;;;;;;13.50;99.90;;;;;;5097117;28;19990;-84
2023/10/29 13:48:55;;;;;;;;;;;13.50;99.90;;;;;;5101162;28;20025;-85
2023/10/29 13:51:22;;;;;;;;;;;13.50;99.90;;;;;;5100875;28;20542;-84
2023/10/29 13:53:49;;;;;;;;;;;13.50;99.90;;;;;;5103533;28;19991;-85
2023/10/29 13:56:16;;;;;;;;;;;13.50;99.90;;;;;;5101123;27;19982;-84
2023/10/29 13:58:43;;;;;;;;;;;13.50;99.90;;;;;;5098489;28;19975;-85
2023/10/29 14:01:16;;;;;;;;;;;13.50;99.90;;;;;;5096392;27;19999;-85
2023/10/29 14:03:44;;;;;;;;;;;13.50;99.90;;;;;;5039965;28;1758495;-84
2023/10/29 14:06:11;;;;;;;;;;;13.60;99.90;;;;;;5098437;28;19979;-85
2023/10/29 14:08:38;;;;;;;;;;;13.60;99.90;;;;;;5105657;28;19983;-87
2023/10/29 14:11:05;;;;;;;;;;;13.60;99.90;;;;;;5093690;28;20015;-85
2023/10/29 14:13:32;;;;;;;;;;;13.60;99.90;;;;;;5099873;28;20002;-84
2023/10/29 14:15:58;;;;;;;;;;;13.60;99.90;;;;;;5095993;28;19995;-85
2023/10/29 14:18:25;;;;;;;;;;;13.60;99.90;;;;;;5105489;27;20013;-87